Time;durP1;ratioP1;P1;durP2;ratioP2;P2;SDS_P1;SDS_P2;PMS_P1;PMS_P2;Temp;Humidity;BMP_temperature;BMP_pressure;BME280_temperature;BME280_humidity;BME280_pressure;Samples;Min_cycle;Max_cycle;Signal;HPM_P1;HPM_P2
2024/02/27 00:01:22;;;;;;;7.35;3.65;;;;;;;;;;5074248;28;20024;-53
2024/02/27 00:03:48;;;;;;;7.25;3.78;;;;;;;;;;5073234;28;20479;-53
2024/02/27 00:06:14;;;;;;;6.07;2.92;;;;;;;;;;5078013;28;20025;-53
2024/02/27 00:08:41;;;;;;;4.75;3.15;;;;;;;;;;5074272;28;20036;-53
2024/02/27 00:11:07;;;;;;;8.02;3.53;;;;;;;;;;5076149;28;20031;-53
2024/02/27 00:13:33;;;;;;;9.23;3.20;;;;;;;;;;5094692;28;20036;-54
2024/02/27 00:15:58;;;;;;;7.55;4.32;;;;;;;;;;5081834;28;20085;-53
2024/02/27 00:18:24;;;;;;;4.85;3.13;;;;;;;;;;5093616;28;20044;-54
2024/02/27 00:20:50;;;;;;;9.45;2.92;;;;;;;;;;5091741;28;20027;-54
2024/02/27 00:23:16;;;;;;;4.57;2.75;;;;;;;;;;5093770;28;20404;-54
2024/02/27 00:25:42;;;;;;;6.82;3.05;;;;;;;;;;5093730;28;20028;-53
2024/02/27 00:28:08;;;;;;;4.80;2.67;;;;;;;;;;5104006;28;20032;-57
2024/02/27 00:30:34;;;;;;;7.60;3.45;;;;;;;;;;5079670;28;20043;-56
2024/02/27 00:33:00;;;;;;;9.30;3.17;;;;;;;;;;5080707;28;20036;-56
2024/02/27 00:35:26;;;;;;;4.75;3.00;;;;;;;;;;5093400;28;20023;-55
2024/02/27 00:37:52;;;;;;;4.53;3.22;;;;;;;;;;5074879;28;20028;-53
2024/02/27 00:40:18;;;;;;;11.27;3.97;;;;;;;;;;5094093;28;20070;-54
2024/02/27 00:42:45;;;;;;;6.82;3.20;;;;;;;;;;5096750;28;20031;-53
2024/02/27 00:45:10;;;;;;;7.15;3.22;;;;;;;;;;5094533;28;20024;-52
2024/02/27 00:47:36;;;;;;;5.78;3.28;;;;;;;;;;5094119;28;20024;-54
2024/02/27 00:50:02;;;;;;;7.60;3.83;;;;;;;;;;5093923;28;20031;-54
2024/02/27 00:52:28;;;;;;;7.40;3.45;;;;;;;;;;5093471;28;20043;-53
2024/02/27 00:54:54;;;;;;;6.70;3.80;;;;;;;;;;5074335;28;20025;-53
2024/02/27 00:57:20;;;;;;;8.65;3.55;;;;;;;;;;5096445;28;20024;-53
2024/02/27 00:59:46;;;;;;;6.35;3.10;;;;;;;;;;5093548;28;20031;-52
2024/02/27 01:02:12;;;;;;;5.47;3.55;;;;;;;;;;5104863;28;20034;-53
2024/02/27 01:04:38;;;;;;;7.90;3.65;;;;;;;;;;5093837;28;20054;-54
2024/02/27 01:07:04;;;;;;;8.35;3.25;;;;;;;;;;5103076;28;20390;-52
2024/02/27 01:09:33;;;;;;;5.82;3.47;;;;;;;;;;5098818;28;20111;-54
2024/02/27 01:11:59;;;;;;;6.50;3.30;;;;;;;;;;5094711;28;20032;-52
2024/02/27 01:14:25;;;;;;;5.63;3.45;;;;;;;;;;5092948;28;20454;-53
2024/02/27 01:16:50;;;;;;;5.43;3.10;;;;;;;;;;5088608;28;20044;-53
2024/02/27 01:19:17;;;;;;;6.07;3.00;;;;;;;;;;5093266;28;20020;-54
2024/02/27 01:21:43;;;;;;;6.18;3.25;;;;;;;;;;5093668;28;20024;-54
2024/02/27 01:24:09;;;;;;;4.57;2.72;;;;;;;;;;5092620;28;20510;-53
2024/02/27 01:26:35;;;;;;;3.65;2.70;;;;;;;;;;5089806;28;20035;-54
2024/02/27 01:29:01;;;;;;;5.95;3.58;;;;;;;;;;5096008;28;20020;-52
2024/02/27 01:31:27;;;;;;;5.53;3.53;;;;;;;;;;5092930;28;20028;-53
2024/02/27 01:33:53;;;;;;;5.50;3.63;;;;;;;;;;5092012;28;20047;-53
2024/02/27 01:36:19;;;;;;;8.60;3.70;;;;;;;;;;5092662;28;20024;-54
2024/02/27 01:38:45;;;;;;;6.53;4.03;;;;;;;;;;5093358;28;20039;-54
2024/02/27 01:41:11;;;;;;;5.82;3.75;;;;;;;;;;5091495;28;20045;-52
2024/02/27 01:43:37;;;;;;;9.13;4.20;;;;;;;;;;5085564;28;20031;-55
2024/02/27 01:46:20;;;;;;;6.85;3.83;;;;;;;;;;5092944;28;20028;-54
2024/02/27 01:48:47;;;;;;;7.63;4.13;;;;;;;;;;5075099;28;20055;-49
2024/02/27 01:51:14;;;;;;;8.70;3.95;;;;;;;;;;5092667;28;20032;-51
2024/02/27 01:53:41;;;;;;;9.40;4.60;;;;;;;;;;5097583;28;20519;-50
2024/02/27 01:56:08;;;;;;;7.55;4.93;;;;;;;;;;5095724;28;20054;-47
2024/02/27 01:58:34;;;;;;;7.15;4.30;;;;;;;;;;5085670;28;20024;-48
2024/02/27 02:01:02;;;;;;;7.50;4.18;;;;;;;;;;5092490;28;20031;-48
2024/02/27 02:03:29;;;;;;;7.80;4.78;;;;;;;;;;5091891;28;20035;-48
2024/02/27 02:05:58;;;;;;;8.48;4.47;;;;;;;;;;5092401;28;20039;-50
2024/02/27 02:08:24;;;;;;;8.70;4.38;;;;;;;;;;5098034;28;20030;-47
2024/02/27 02:10:51;;;;;;;7.88;3.90;;;;;;;;;;5091141;28;20539;-49
2024/02/27 02:13:17;;;;;;;6.20;3.70;;;;;;;;;;5096247;28;20028;-46
2024/02/27 02:15:44;;;;;;;7.22;4.40;;;;;;;;;;5091665;28;20032;-48
2024/02/27 02:18:10;;;;;;;9.80;5.03;;;;;;;;;;5092178;28;20113;-49
2024/02/27 02:20:36;;;;;;;8.40;4.75;;;;;;;;;;5090953;28;20479;-47
2024/02/27 02:23:02;;;;;;;9.38;5.15;;;;;;;;;;5090805;28;20024;-50
2024/02/27 02:25:30;;;;;;;10.07;4.57;;;;;;;;;;5091360;28;20024;-51
2024/02/27 02:27:56;;;;;;;8.73;4.75;;;;;;;;;;5093645;28;20093;-47
2024/02/27 02:30:22;;;;;;;6.85;4.72;;;;;;;;;;5092164;28;20395;-47
2024/02/27 02:32:49;;;;;;;8.65;5.40;;;;;;;;;;5088722;28;20027;-48
2024/02/27 02:35:15;;;;;;;8.48;4.55;;;;;;;;;;5092494;28;20020;-50
2024/02/27 02:37:41;;;;;;;8.70;4.70;;;;;;;;;;5091390;28;20403;-51
2024/02/27 02:40:07;;;;;;;9.77;4.47;;;;;;;;;;5092050;28;20106;-50
2024/02/27 02:42:34;;;;;;;9.25;5.15;;;;;;;;;;5095606;28;20024;-49
2024/02/27 02:45:00;;;;;;;9.15;5.05;;;;;;;;;;5091553;28;20020;-47
2024/02/27 02:47:26;;;;;;;7.85;4.53;;;;;;;;;;5091859;28;20042;-49
2024/02/27 02:49:52;;;;;;;7.55;4.50;;;;;;;;;;5090766;28;20063;-50
2024/02/27 02:52:17;;;;;;;7.30;4.45;;;;;;;;;;5099973;28;20674;-47
2024/02/27 02:54:43;;;;;;;7.65;4.63;;;;;;;;;;5091779;28;20434;-47
2024/02/27 02:57:09;;;;;;;7.82;4.50;;;;;;;;;;5091498;28;20106;-49
2024/02/27 02:59:35;;;;;;;6.15;4.40;;;;;;;;;;5092127;28;20032;-50
2024/02/27 03:02:01;;;;;;;8.90;4.22;;;;;;;;;;5090702;28;20438;-50
2024/02/27 03:04:28;;;;;;;6.32;4.32;;;;;;;;;;5090928;28;20372;-48
2024/02/27 03:06:54;;;;;;;9.13;4.90;;;;;;;;;;5091369;28;20040;-48
2024/02/27 03:09:20;;;;;;;8.73;4.72;;;;;;;;;;5091241;28;20065;-49
2024/02/27 03:11:49;;;;;;;10.68;5.07;;;;;;;;;;5092517;28;20486;-48
2024/02/27 03:14:16;;;;;;;7.68;4.40;;;;;;;;;;5091516;28;20107;-48
2024/02/27 03:16:42;;;;;;;7.25;4.28;;;;;;;;;;5091493;28;20441;-48
2024/02/27 03:19:08;;;;;;;7.60;4.38;;;;;;;;;;5094771;28;20027;-48
2024/02/27 03:21:34;;;;;;;6.68;4.43;;;;;;;;;;5107168;28;20054;-50
2024/02/27 03:24:00;;;;;;;7.30;4.20;;;;;;;;;;5100269;28;20035;-48
2024/02/27 03:26:26;;;;;;;9.73;3.97;;;;;;;;;;5077437;28;20392;-46
2024/02/27 03:28:52;;;;;;;8.90;4.35;;;;;;;;;;5110243;28;20043;-50
2024/02/27 03:31:18;;;;;;;7.80;4.22;;;;;;;;;;5095994;28;20058;-49
2024/02/27 03:33:44;;;;;;;9.77;4.85;;;;;;;;;;5110136;28;20614;-48
2024/02/27 03:36:10;;;;;;;7.95;3.75;;;;;;;;;;5114573;28;20406;-50
2024/02/27 03:38:36;;;;;;;8.73;4.30;;;;;;;;;;5099373;28;20028;-51
2024/02/27 03:41:02;;;;;;;7.35;4.78;;;;;;;;;;5092469;28;20046;-51
2024/02/27 03:43:28;;;;;;;6.80;4.18;;;;;;;;;;5112420;28;20106;-50
2024/02/27 03:45:54;;;;;;;8.05;4.40;;;;;;;;;;5098815;28;20032;-47
2024/02/27 03:48:20;;;;;;;8.57;4.43;;;;;;;;;;5090458;28;20076;-47
2024/02/27 03:50:46;;;;;;;8.10;4.18;;;;;;;;;;5080692;28;20028;-46
2024/02/27 03:53:12;;;;;;;7.95;4.13;;;;;;;;;;5109930;28;20540;-48
2024/02/27 03:55:38;;;;;;;7.90;3.92;;;;;;;;;;5106136;28;20025;-47
2024/02/27 03:58:04;;;;;;;6.55;4.03;;;;;;;;;;5096015;28;20028;-56
2024/02/27 04:00:30;;;;;;;5.70;3.95;;;;;;;;;;5102781;28;20086;-56
2024/02/27 04:02:57;;;;;;;6.18;4.10;;;;;;;;;;5094928;28;20548;-56
2024/02/27 04:05:23;;;;;;;8.20;4.13;;;;;;;;;;5089283;28;20028;-56
2024/02/27 04:07:48;;;;;;;8.43;3.80;;;;;;;;;;5101636;28;20032;-53
2024/02/27 04:10:14;;;;;;;7.72;4.13;;;;;;;;;;5106247;28;20042;-55
2024/02/27 04:12:40;;;;;;;9.93;4.05;;;;;;;;;;5103443;28;20103;-54
2024/02/27 04:15:07;;;;;;;6.47;3.65;;;;;;;;;;5101120;28;20024;-54
2024/02/27 04:17:33;;;;;;;6.25;3.53;;;;;;;;;;5104695;28;20510;-52
2024/02/27 04:19:59;;;;;;;5.53;3.95;;;;;;;;;;5089795;28;20040;-53
2024/02/27 04:22:25;;;;;;;7.88;3.80;;;;;;;;;;5100351;28;20020;-53
2024/02/27 04:24:51;;;;;;;6.55;4.13;;;;;;;;;;5093349;28;20060;-53
2024/02/27 04:27:17;;;;;;;8.82;4.13;;;;;;;;;;5087521;28;20032;-52
2024/02/27 04:29:42;;;;;;;8.57;4.50;;;;;;;;;;5094062;28;20040;-53
2024/02/27 04:32:10;;;;;;;9.13;4.63;;;;;;;;;;5108942;28;20088;-51
2024/02/27 04:34:36;;;;;;;7.88;4.38;;;;;;;;;;5106881;28;20483;-52
2024/02/27 04:37:02;;;;;;;7.18;3.92;;;;;;;;;;5101929;28;20016;-53
2024/02/27 04:39:28;;;;;;;5.05;3.53;;;;;;;;;;5101209;28;20067;-53
2024/02/27 04:41:54;;;;;;;8.88;4.75;;;;;;;;;;5089648;28;20031;-52
2024/02/27 04:44:20;;;;;;;8.88;4.78;;;;;;;;;;5090250;28;20023;-53
2024/02/27 04:46:46;;;;;;;9.48;5.15;;;;;;;;;;5091038;28;20035;-51
2024/02/27 04:49:12;;;;;;;10.40;5.55;;;;;;;;;;5103858;28;20046;-55
2024/02/27 04:51:38;;;;;;;11.40;5.25;;;;;;;;;;5100458;28;20024;-53
2024/02/27 04:54:04;;;;;;;10.15;5.10;;;;;;;;;;5079527;28;20036;-55
2024/02/27 04:56:30;;;;;;;12.02;6.03;;;;;;;;;;5087004;28;20024;-52
2024/02/27 04:58:56;;;;;;;11.55;6.10;;;;;;;;;;5092996;28;20107;-54
2024/02/27 05:01:22;;;;;;;12.43;6.63;;;;;;;;;;5095039;28;20103;-53
2024/02/27 05:03:48;;;;;;;13.02;6.93;;;;;;;;;;5081163;28;20379;-52
2024/02/27 05:06:14;;;;;;;10.93;6.85;;;;;;;;;;5084789;28;20085;-54
2024/02/27 05:08:40;;;;;;;13.55;6.70;;;;;;;;;;5091847;28;20025;-56
2024/02/27 05:11:06;;;;;;;10.27;6.57;;;;;;;;;;5080924;28;20077;-54
2024/02/27 05:13:32;;;;;;;13.63;7.72;;;;;;;;;;5079492;28;20043;-56
2024/02/27 05:15:58;;;;;;;15.02;7.82;;;;;;;;;;5083512;28;20108;-55
2024/02/27 05:18:24;;;;;;;15.93;7.15;;;;;;;;;;5081471;28;20036;-48
2024/02/27 05:20:50;;;;;;;12.88;7.70;;;;;;;;;;5087079;28;20017;-47
2024/02/27 05:23:16;;;;;;;14.35;8.95;;;;;;;;;;5079454;28;20036;-49
2024/02/27 05:25:42;;;;;;;16.23;7.90;;;;;;;;;;5090344;28;20428;-48
2024/02/27 05:28:08;;;;;;;16.23;7.85;;;;;;;;;;5096405;28;20037;-49
2024/02/27 05:30:34;;;;;;;18.02;8.85;;;;;;;;;;5066706;28;20028;-49
2024/02/27 05:33:00;;;;;;;15.05;8.20;;;;;;;;;;5085120;28;20036;-48
2024/02/27 05:35:26;;;;;;;15.32;8.50;;;;;;;;;;5086101;28;20024;-50
2024/02/27 05:37:52;;;;;;;16.42;8.30;;;;;;;;;;5092999;28;20066;-48
2024/02/27 05:40:18;;;;;;;17.55;9.13;;;;;;;;;;5091390;28;20016;-49
2024/02/27 05:42:44;;;;;;;14.05;8.13;;;;;;;;;;5088021;28;20530;-47
2024/02/27 05:45:10;;;;;;;13.82;7.93;;;;;;;;;;5091936;28;20387;-47
2024/02/27 05:47:36;;;;;;;17.05;9.15;;;;;;;;;;5092485;28;20032;-49
2024/02/27 05:50:03;;;;;;;16.85;9.63;;;;;;;;;;5088820;28;20027;-47
2024/02/27 05:52:29;;;;;;;19.10;9.23;;;;;;;;;;5090494;28;20024;-55
2024/02/27 05:54:55;;;;;;;14.55;8.85;;;;;;;;;;5086278;28;20028;-44
2024/02/27 05:57:21;;;;;;;17.17;9.13;;;;;;;;;;5089519;28;20031;-45
2024/02/27 05:59:47;;;;;;;16.77;9.30;;;;;;;;;;5082781;28;20024;-45
2024/02/27 06:02:14;;;;;;;17.60;8.02;;;;;;;;;;5084965;28;20086;-44
2024/02/27 06:04:40;;;;;;;19.50;8.18;;;;;;;;;;5097613;28;20109;-45
2024/02/27 06:07:08;;;;;;;15.55;8.27;;;;;;;;;;5091378;28;20028;-47
2024/02/27 06:09:34;;;;;;;15.80;7.65;;;;;;;;;;5091313;28;20135;-46
2024/02/27 06:12:00;;;;;;;15.02;8.38;;;;;;;;;;5080843;28;20527;-45
2024/02/27 06:14:26;;;;;;;15.57;8.65;;;;;;;;;;5090142;28;20052;-44
2024/02/27 06:16:52;;;;;;;13.93;7.82;;;;;;;;;;5088873;28;20032;-54
2024/02/27 06:19:19;;;;;;;13.50;7.53;;;;;;;;;;5074910;28;20074;-55
2024/02/27 06:24:30;;;;;;;14.70;8.00;;;;;;;;;;5069470;28;20040;-54
2024/02/27 06:26:56;;;;;;;14.82;7.90;;;;;;;;;;5069871;28;20500;-50
2024/02/27 06:29:22;;;;;;;16.05;8.77;;;;;;;;;;5075396;28;20029;-51
2024/02/27 06:31:48;;;;;;;16.77;9.55;;;;;;;;;;5076047;28;20035;-50
2024/02/27 06:34:13;;;;;;;21.45;11.48;;;;;;;;;;5077733;28;20044;-50
2024/02/27 06:36:39;;;;;;;24.70;11.77;;;;;;;;;;5078797;28;20028;-49
2024/02/27 06:39:05;;;;;;;23.92;11.98;;;;;;;;;;5074704;28;20040;-50
2024/02/27 06:41:31;;;;;;;24.55;12.85;;;;;;;;;;5074645;28;20020;-48
2024/02/27 06:43:57;;;;;;;27.42;14.27;;;;;;;;;;5070748;28;20396;-49
2024/02/27 06:46:23;;;;;;;27.38;14.80;;;;;;;;;;5077537;28;20028;-50
2024/02/27 06:48:49;;;;;;;29.48;14.63;;;;;;;;;;5071122;28;20021;-52
2024/02/27 06:51:15;;;;;;;32.35;16.45;;;;;;;;;;5070575;28;20503;-51
2024/02/27 06:53:42;;;;;;;31.15;16.25;;;;;;;;;;5070610;28;20025;-51
2024/02/27 06:56:08;;;;;;;35.38;17.27;;;;;;;;;;5070719;28;20054;-51
2024/02/27 06:58:34;;;;;;;36.13;17.98;;;;;;;;;;5068734;28;20024;-51
2024/02/27 07:01:01;;;;;;;36.55;18.45;;;;;;;;;;5073258;28;20021;-49
2024/02/27 07:03:27;;;;;;;33.28;16.83;;;;;;;;;;5070459;28;21035;-49
2024/02/27 07:05:53;;;;;;;35.42;17.75;;;;;;;;;;5070280;28;20032;-49
2024/02/27 07:08:19;;;;;;;31.75;16.30;;;;;;;;;;5073328;28;20126;-50
2024/02/27 07:10:45;;;;;;;33.15;16.88;;;;;;;;;;5073128;28;20028;-52
2024/02/27 07:13:12;;;;;;;33.53;16.80;;;;;;;;;;5070198;28;20036;-51
2024/02/27 07:15:38;;;;;;;36.78;17.05;;;;;;;;;;5075744;28;20032;-51
2024/02/27 07:18:04;;;;;;;33.67;16.95;;;;;;;;;;5079113;28;20618;-52
2024/02/27 07:20:31;;;;;;;34.85;17.33;;;;;;;;;;5091051;28;20467;-52
2024/02/27 07:22:59;;;;;;;43.05;17.95;;;;;;;;;;5092151;28;20099;-50
2024/02/27 07:25:25;;;;;;;38.33;18.67;;;;;;;;;;5089462;28;20532;-52
2024/02/27 07:27:51;;;;;;;38.08;18.17;;;;;;;;;;5091083;28;20024;-52
2024/02/27 07:30:18;;;;;;;37.53;17.50;;;;;;;;;;5090861;28;20511;-53
2024/02/27 07:32:44;;;;;;;40.30;17.25;;;;;;;;;;5091630;28;20352;-53
2024/02/27 07:35:10;;;;;;;37.60;16.77;;;;;;;;;;5089040;28;20765;-55
2024/02/27 07:37:36;;;;;;;36.25;16.98;;;;;;;;;;5090485;28;20035;-53
2024/02/27 07:40:03;;;;;;;36.22;17.63;;;;;;;;;;5092424;28;20032;-54
2024/02/27 07:42:29;;;;;;;35.90;16.48;;;;;;;;;;5090318;28;20056;-55
2024/02/27 07:44:55;;;;;;;31.15;16.58;;;;;;;;;;5097442;28;20042;-54
2024/02/27 07:47:21;;;;;;;33.60;16.08;;;;;;;;;;5090139;28;20423;-55
2024/02/27 07:49:47;;;;;;;32.42;15.77;;;;;;;;;;5090581;28;20097;-55
2024/02/27 07:52:14;;;;;;;33.20;16.30;;;;;;;;;;5083206;28;20032;-53
2024/02/27 07:54:40;;;;;;;35.75;16.58;;;;;;;;;;5074655;28;20103;-55
2024/02/27 07:57:06;;;;;;;38.40;18.40;;;;;;;;;;5091915;28;20092;-55
2024/02/27 07:59:32;;;;;;;33.10;17.48;;;;;;;;;;5092464;28;20028;-55
2024/02/27 08:01:58;;;;;;;33.10;17.17;;;;;;;;;;5091343;28;20072;-55
2024/02/27 08:04:24;;;;;;;32.33;16.20;;;;;;;;;;5094532;28;20033;-55
2024/02/27 08:06:50;;;;;;;39.40;15.60;;;;;;;;;;5094534;28;20497;-54
2024/02/27 08:09:16;;;;;;;32.70;17.20;;;;;;;;;;5094065;28;20036;-55
2024/02/27 08:11:42;;;;;;;32.47;16.55;;;;;;;;;;5088379;28;20060;-54
2024/02/27 08:14:08;;;;;;;29.75;15.43;;;;;;;;;;5093455;28;20495;-55
2024/02/27 08:16:34;;;;;;;33.67;17.42;;;;;;;;;;5095050;28;20206;-55
2024/02/27 08:19:04;;;;;;;36.08;16.42;;;;;;;;;;5094015;28;20081;-55
2024/02/27 08:21:33;;;;;;;33.13;16.20;;;;;;;;;;5083625;28;20078;-54
2024/02/27 08:24:02;;;;;;;36.60;16.73;;;;;;;;;;5086304;28;20092;-54
2024/02/27 08:26:28;;;;;;;38.85;17.58;;;;;;;;;;5079897;28;20077;-55
2024/02/27 08:28:54;;;;;;;37.70;17.00;;;;;;;;;;5087751;28;20117;-54
2024/02/27 08:31:20;;;;;;;36.33;17.88;;;;;;;;;;5089270;28;20032;-53
2024/02/27 08:33:46;;;;;;;34.78;16.23;;;;;;;;;;5081121;28;20285;-55
2024/02/27 08:36:12;;;;;;;36.53;16.80;;;;;;;;;;5085570;28;20024;-53
2024/02/27 08:38:38;;;;;;;34.28;16.92;;;;;;;;;;5093685;28;20407;-55
2024/02/27 08:41:04;;;;;;;34.40;17.15;;;;;;;;;;5093582;28;20020;-52
2024/02/27 08:43:30;;;;;;;34.47;16.60;;;;;;;;;;5067202;28;20062;-54
2024/02/27 08:45:56;;;;;;;31.45;15.50;;;;;;;;;;5066947;28;20032;-50
2024/02/27 08:48:22;;;;;;;34.38;16.95;;;;;;;;;;5090018;28;20032;-52
2024/02/27 08:50:48;;;;;;;33.72;17.30;;;;;;;;;;5082025;28;20028;-50
2024/02/27 08:53:14;;;;;;;32.90;16.42;;;;;;;;;;5092985;28;20034;-52
2024/02/27 08:55:41;;;;;;;31.00;15.05;;;;;;;;;;5088680;28;20098;-51
2024/02/27 08:58:07;;;;;;;32.83;16.40;;;;;;;;;;5087993;28;20036;-52
2024/02/27 09:00:33;;;;;;;39.08;16.15;;;;;;;;;;5076011;28;20029;-51
2024/02/27 09:02:59;;;;;;;31.92;15.32;;;;;;;;;;5068553;28;20017;-52
2024/02/27 09:05:25;;;;;;;36.88;16.73;;;;;;;;;;5071622;28;20073;-50
2024/02/27 09:07:51;;;;;;;31.05;14.65;;;;;;;;;;5081869;28;20028;-52
2024/02/27 09:10:17;;;;;;;30.48;15.48;;;;;;;;;;5086524;28;20515;-52
2024/02/27 09:12:44;;;;;;;35.67;16.90;;;;;;;;;;5075121;28;20098;-50
2024/02/27 09:15:10;;;;;;;28.55;14.52;;;;;;;;;;5073482;28;20458;-52
2024/02/27 09:17:36;;;;;;;32.72;15.98;;;;;;;;;;5086403;28;20055;-51
2024/02/27 09:20:03;;;;;;;31.33;15.82;;;;;;;;;;5083421;28;20087;-51
2024/02/27 09:22:31;;;;;;;29.60;15.10;;;;;;;;;;5072048;28;20484;-52
2024/02/27 09:24:57;;;;;;;32.38;15.32;;;;;;;;;;5072417;28;20090;-53
2024/02/27 09:27:23;;;;;;;29.70;14.50;;;;;;;;;;5072364;28;20028;-52
2024/02/27 09:29:49;;;;;;;34.28;16.65;;;;;;;;;;5070040;28;20133;-51
2024/02/27 09:32:20;;;;;;;33.45;15.65;;;;;;;;;;5069500;28;20103;-51
2024/02/27 09:34:46;;;;;;;32.75;15.70;;;;;;;;;;5072209;28;20404;-52
2024/02/27 09:37:12;;;;;;;29.27;14.32;;;;;;;;;;5077556;28;20389;-51
2024/02/27 09:39:38;;;;;;;29.92;15.73;;;;;;;;;;5072203;28;20040;-51
2024/02/27 09:42:14;;;;;;;30.00;16.08;;;;;;;;;;5071784;28;20024;-51
2024/02/27 09:44:46;;;;;;;28.70;15.15;;;;;;;;;;5076195;28;20028;-52
2024/02/27 09:47:14;;;;;;;27.42;14.20;;;;;;;;;;5066290;28;20029;-45
2024/02/27 09:49:41;;;;;;;31.50;15.07;;;;;;;;;;5071988;28;20040;-45
2024/02/27 09:52:10;;;;;;;39.58;15.60;;;;;;;;;;5087103;28;20101;-48
2024/02/27 09:54:37;;;;;;;28.55;14.40;;;;;;;;;;5079271;28;20020;-45
2024/02/27 09:57:03;;;;;;;29.95;14.75;;;;;;;;;;5085189;28;20052;-50
2024/02/27 09:59:29;;;;;;;27.88;14.48;;;;;;;;;;5071456;28;20028;-52
2024/02/27 10:01:59;;;;;;;27.80;15.10;;;;;;;;;;5067378;28;20075;-50
2024/02/27 10:04:25;;;;;;;28.95;14.15;;;;;;;;;;5079958;28;20036;-52
2024/02/27 10:06:51;;;;;;;30.85;15.68;;;;;;;;;;5074902;28;20453;-53
2024/02/27 10:09:18;;;;;;;26.50;14.15;;;;;;;;;;5072180;28;20025;-51
2024/02/27 10:11:44;;;;;;;29.55;14.88;;;;;;;;;;5071404;28;20025;-52
2024/02/27 10:14:21;;;;;;;27.40;14.40;;;;;;;;;;5070673;28;20032;-52
2024/02/27 10:16:47;;;;;;;29.35;14.85;;;;;;;;;;5077932;28;20040;-52
2024/02/27 10:19:13;;;;;;;27.00;14.23;;;;;;;;;;5067019;28;20023;-51
2024/02/27 10:21:39;;;;;;;26.75;13.45;;;;;;;;;;5071546;28;20028;-53
2024/02/27 10:24:05;;;;;;;27.00;14.23;;;;;;;;;;5070941;28;20028;-51
2024/02/27 10:26:31;;;;;;;32.72;14.23;;;;;;;;;;5071039;28;20472;-52
2024/02/27 10:28:57;;;;;;;31.90;15.50;;;;;;;;;;5071219;28;20034;-52
2024/02/27 10:31:23;;;;;;;30.92;14.10;;;;;;;;;;5070756;28;20506;-52
2024/02/27 10:33:51;;;;;;;27.13;14.02;;;;;;;;;;5070912;28;20397;-51
2024/02/27 10:36:17;;;;;;;27.67;13.98;;;;;;;;;;5076384;28;20086;-51
2024/02/27 10:38:44;;;;;;;25.40;14.43;;;;;;;;;;5071207;28;20028;-53
2024/02/27 10:41:10;;;;;;;27.25;14.38;;;;;;;;;;5070918;28;20025;-51
2024/02/27 10:43:36;;;;;;;32.30;15.07;;;;;;;;;;5076147;28;20035;-52
2024/02/27 10:46:02;;;;;;;28.13;14.23;;;;;;;;;;5070876;28;20103;-50
2024/02/27 10:48:29;;;;;;;24.23;13.20;;;;;;;;;;5067843;28;20035;-52
2024/02/27 10:50:55;;;;;;;28.13;14.40;;;;;;;;;;5076810;28;20036;-56
2024/02/27 10:53:24;;;;;;;27.08;13.50;;;;;;;;;;5070344;28;20047;-53
2024/02/27 10:55:51;;;;;;;25.35;13.40;;;;;;;;;;5070747;28;20108;-52
2024/02/27 10:58:18;;;;;;;27.10;14.13;;;;;;;;;;5071034;28;20469;-48
2024/02/27 11:00:44;;;;;;;29.10;13.93;;;;;;;;;;5070052;28;20035;-45
2024/02/27 11:03:13;;;;;;;25.70;14.75;;;;;;;;;;5069868;28;20086;-47
2024/02/27 11:05:41;;;;;;;26.65;12.55;;;;;;;;;;5070665;28;20538;-50
2024/02/27 11:08:07;;;;;;;26.40;12.80;;;;;;;;;;5070452;28;20036;-56
2024/02/27 11:10:34;;;;;;;23.13;11.95;;;;;;;;;;5070733;28;20024;-56
2024/02/27 11:13:01;;;;;;;21.33;11.57;;;;;;;;;;5070159;28;20020;-55
2024/02/27 11:15:29;;;;;;;24.00;12.65;;;;;;;;;;5070718;28;20028;-55
2024/02/27 11:18:00;;;;;;;26.95;14.27;;;;;;;;;;5085561;28;20136;-55
2024/02/27 11:20:28;;;;;;;19.90;11.40;;;;;;;;;;5090913;28;20024;-56
2024/02/27 11:22:55;;;;;;;24.58;12.60;;;;;;;;;;5085310;28;20400;-55
2024/02/27 11:25:21;;;;;;;24.70;12.85;;;;;;;;;;5098961;28;20151;-55
2024/02/27 11:27:47;;;;;;;20.50;11.35;;;;;;;;;;5089909;28;20166;-55
2024/02/27 11:30:16;;;;;;;21.95;11.00;;;;;;;;;;5080704;28;20138;-55
2024/02/27 11:32:42;;;;;;;22.02;11.38;;;;;;;;;;5079216;28;20541;-55
2024/02/27 11:35:10;;;;;;;22.20;11.20;;;;;;;;;;5098498;28;20023;-52
2024/02/27 11:37:36;;;;;;;21.10;12.02;;;;;;;;;;5082404;28;20441;-55
2024/02/27 11:40:06;;;;;;;21.90;11.63;;;;;;;;;;5094642;28;20035;-53
2024/02/27 11:42:38;;;;;;;23.65;11.30;;;;;;;;;;5086383;28;20047;-55
2024/02/27 11:45:06;;;;;;;21.67;11.30;;;;;;;;;;5094643;28;20518;-55
2024/02/27 11:47:42;;;;;;;19.40;10.00;;;;;;;;;;5083245;28;20118;-54
2024/02/27 11:50:12;;;;;;;20.55;10.43;;;;;;;;;;5087500;28;20024;-53
2024/02/27 11:52:41;;;;;;;22.10;11.48;;;;;;;;;;5088776;28;20028;-53
2024/02/27 11:55:08;;;;;;;19.65;10.40;;;;;;;;;;5100714;28;20038;-55
2024/02/27 11:57:35;;;;;;;19.00;9.98;;;;;;;;;;5100043;28;20433;-55
2024/02/27 12:00:05;;;;;;;17.23;9.43;;;;;;;;;;5091408;28;20559;-55
2024/02/27 12:02:34;;;;;;;18.52;10.02;;;;;;;;;;5086905;28;20047;-54
2024/02/27 12:05:00;;;;;;;17.52;9.43;;;;;;;;;;5088469;28;20103;-55
2024/02/27 12:07:30;;;;;;;21.27;10.50;;;;;;;;;;5091835;28;20028;-52
2024/02/27 12:10:09;;;;;;;17.23;9.27;;;;;;;;;;5083813;28;20032;-53
2024/02/27 12:12:36;;;;;;;16.75;9.43;;;;;;;;;;5074091;28;20028;-50
2024/02/27 12:15:03;;;;;;;14.52;8.93;;;;;;;;;;5089718;28;20134;-54
2024/02/27 12:17:29;;;;;;;13.45;7.40;;;;;;;;;;5084507;28;20128;-54
2024/02/27 12:19:55;;;;;;;14.15;8.25;;;;;;;;;;5088373;28;20039;-55
2024/02/27 12:22:21;;;;;;;14.77;8.35;;;;;;;;;;5090980;28;20039;-55
2024/02/27 12:24:47;;;;;;;16.27;8.48;;;;;;;;;;5093771;28;20028;-55
2024/02/27 12:27:16;;;;;;;14.13;7.80;;;;;;;;;;5093534;28;20031;-55
2024/02/27 12:29:42;;;;;;;12.55;7.38;;;;;;;;;;5094046;28;20539;-55
2024/02/27 12:32:08;;;;;;;16.83;8.13;;;;;;;;;;5093052;28;20519;-55
2024/02/27 12:34:35;;;;;;;18.88;8.68;;;;;;;;;;5095373;28;20229;-54
2024/02/27 12:37:02;;;;;;;14.68;7.45;;;;;;;;;;5093758;28;20024;-55
2024/02/27 12:39:28;;;;;;;12.43;7.53;;;;;;;;;;5094944;28;20020;-56
2024/02/27 12:41:54;;;;;;;13.18;7.43;;;;;;;;;;5093363;28;20020;-55
2024/02/27 12:44:20;;;;;;;16.80;8.30;;;;;;;;;;5094596;28;20487;-56
2024/02/27 12:46:47;;;;;;;14.57;7.57;;;;;;;;;;5092225;28;20032;-56
2024/02/27 12:49:13;;;;;;;12.52;7.20;;;;;;;;;;5092482;28;20497;-56
2024/02/27 12:51:39;;;;;;;11.45;7.38;;;;;;;;;;5093380;28;20103;-54
2024/02/27 12:54:06;;;;;;;10.27;6.28;;;;;;;;;;5092867;28;20143;-55
2024/02/27 12:56:34;;;;;;;13.98;7.72;;;;;;;;;;5092733;28;20119;-55
2024/02/27 12:59:00;;;;;;;12.60;6.90;;;;;;;;;;5087201;28;20032;-55
2024/02/27 13:01:26;;;;;;;12.07;7.80;;;;;;;;;;5098204;28;20028;-55
2024/02/27 13:03:52;;;;;;;13.15;7.15;;;;;;;;;;5086731;28;20024;-56
2024/02/27 13:06:18;;;;;;;13.20;6.82;;;;;;;;;;5088491;28;20025;-54
2024/02/27 13:08:44;;;;;;;13.57;7.53;;;;;;;;;;5093142;28;20032;-55
2024/02/27 13:11:10;;;;;;;13.38;7.43;;;;;;;;;;5085298;28;20031;-55
2024/02/27 13:13:36;;;;;;;13.85;7.38;;;;;;;;;;5080952;28;20107;-55
2024/02/27 13:16:05;;;;;;;11.38;6.55;;;;;;;;;;5081236;28;20031;-51
2024/02/27 13:18:31;;;;;;;13.63;7.60;;;;;;;;;;5096267;28;20074;-54
2024/02/27 13:20:58;;;;;;;13.73;8.07;;;;;;;;;;5081350;28;20392;-53
2024/02/27 13:23:24;;;;;;;13.55;7.97;;;;;;;;;;5092222;28;20024;-53
2024/02/27 13:25:50;;;;;;;13.15;7.95;;;;;;;;;;5092220;28;20095;-53
2024/02/27 13:28:16;;;;;;;20.48;8.95;;;;;;;;;;5092456;28;20028;-55
2024/02/27 13:30:42;;;;;;;14.05;8.20;;;;;;;;;;5092609;28;20028;-55
2024/02/27 13:33:08;;;;;;;13.55;7.85;;;;;;;;;;5091879;28;20032;-55
2024/02/27 13:35:34;;;;;;;16.20;8.70;;;;;;;;;;5083900;28;20498;-55
2024/02/27 13:38:00;;;;;;;15.88;8.43;;;;;;;;;;5089413;28;20013;-56
2024/02/27 13:40:26;;;;;;;16.50;8.88;;;;;;;;;;5091075;28;20039;-55
2024/02/27 13:42:52;;;;;;;17.83;8.40;;;;;;;;;;5093778;28;20027;-55
2024/02/27 13:45:18;;;;;;;12.20;7.38;;;;;;;;;;5104046;28;20023;-55
2024/02/27 13:47:44;;;;;;;13.93;8.27;;;;;;;;;;5081415;28;20480;-55
2024/02/27 13:50:10;;;;;;;15.60;7.53;;;;;;;;;;5080045;28;20402;-56
2024/02/27 13:52:36;;;;;;;14.07;7.80;;;;;;;;;;5087387;28;20427;-54
2024/02/27 13:55:04;;;;;;;16.88;8.32;;;;;;;;;;5079452;28;20028;-56
2024/02/27 13:57:30;;;;;;;14.15;7.68;;;;;;;;;;5085423;28;20023;-56
2024/02/27 13:59:56;;;;;;;12.20;6.68;;;;;;;;;;5090536;28;20028;-56
2024/02/27 14:02:23;;;;;;;14.57;7.00;;;;;;;;;;5086015;28;20035;-54
2024/02/27 14:04:49;;;;;;;17.05;8.82;;;;;;;;;;5075002;28;20035;-55
2024/02/27 14:07:15;;;;;;;15.90;8.63;;;;;;;;;;5088333;28;20597;-55
2024/02/27 14:09:41;;;;;;;14.13;7.10;;;;;;;;;;5095785;28;20114;-52
2024/02/27 14:12:07;;;;;;;16.92;8.25;;;;;;;;;;5080908;28;20055;-50
2024/02/27 14:14:34;;;;;;;16.02;7.72;;;;;;;;;;5089986;28;20032;-55
2024/02/27 14:17:00;;;;;;;17.90;8.40;;;;;;;;;;5084552;28;20178;-55
2024/02/27 14:19:26;;;;;;;16.92;8.80;;;;;;;;;;5087502;28;20031;-56
2024/02/27 14:21:52;;;;;;;15.43;8.25;;;;;;;;;;5091688;28;20028;-56
2024/02/27 14:24:18;;;;;;;16.88;8.43;;;;;;;;;;5090309;28;20043;-56
2024/02/27 14:26:44;;;;;;;14.93;8.18;;;;;;;;;;5100337;28;20114;-54